createdAt,value
2023-03-18T00:00:23.734Z,22.14
2023-03-18T00:02:50.375Z,22.15
2023-03-18T00:05:17.365Z,22.16
2023-03-18T00:07:44.024Z,22.17
2023-03-18T00:10:12.144Z,22.18
2023-03-18T00:12:39.704Z,22.19
2023-03-18T00:15:07.914Z,22.18
2023-03-18T00:17:35.314Z,22.20
2023-03-18T00:20:06.209Z,22.19
2023-03-18T00:22:36.712Z,22.20
2023-03-18T00:25:05.356Z,22.18
2023-03-18T00:27:32.102Z,22.19
2023-03-18T00:29:59.195Z,22.18
2023-03-18T00:32:26.869Z,22.19
2023-03-18T00:34:54.062Z,22.17
2023-03-18T00:37:30.658Z,22.17
2023-03-18T00:40:06.409Z,22.16
2023-03-18T00:42:39.280Z,22.15
2023-03-18T00:45:07.714Z,22.13
2023-03-18T00:47:34.657Z,22.14
2023-03-18T00:50:01.782Z,22.12
2023-03-18T00:52:30.081Z,22.11
2023-03-18T00:54:58.485Z,22.12
2023-03-18T00:57:25.500Z,22.11
2023-03-18T00:59:52.272Z,22.10
2023-03-18T01:02:19.317Z,22.08
2023-03-18T01:04:45.931Z,22.08
2023-03-18T01:07:13.602Z,22.07
2023-03-18T01:09:40.993Z,22.06
2023-03-18T01:12:08.966Z,22.03
2023-03-18T01:14:36.596Z,22.03
2023-03-18T01:17:03.678Z,21.99
2023-03-18T01:19:30.656Z,21.99
2023-03-18T01:21:57.422Z,21.97
2023-03-18T01:24:24.195Z,21.95
2023-03-18T01:26:50.855Z,21.93
2023-03-18T01:29:18.279Z,21.93
2023-03-18T01:31:45.810Z,21.89
2023-03-18T01:34:12.605Z,21.87
2023-03-18T01:36:39.282Z,21.87
2023-03-18T01:39:06.646Z,21.85
2023-03-18T01:41:33.424Z,21.84
2023-03-18T01:44:02.345Z,21.81
2023-03-18T01:46:39.599Z,21.79
2023-03-18T01:49:14.228Z,21.76
2023-03-18T01:51:43.785Z,21.74
2023-03-18T01:54:12.528Z,21.68
2023-03-18T01:56:40.460Z,21.69
2023-03-18T01:59:08.095Z,21.62
2023-03-18T02:01:39.413Z,21.59
2023-03-18T02:04:07.726Z,21.55
2023-03-18T02:06:34.839Z,21.55
2023-03-18T02:09:01.848Z,21.53
2023-03-18T02:11:30.924Z,21.53
2023-03-18T02:13:57.854Z,21.49
2023-03-18T02:16:27.557Z,21.46
2023-03-18T02:19:00.911Z,21.42
2023-03-18T02:21:42.835Z,21.43
2023-03-18T02:24:17.441Z,21.40
2023-03-18T02:26:57.291Z,21.40
2023-03-18T02:29:24.940Z,21.36
2023-03-18T02:31:51.997Z,21.36
2023-03-18T02:34:19.069Z,21.34
2023-03-18T02:36:46.327Z,21.33
2023-03-18T02:39:14.832Z,21.30
2023-03-18T02:41:41.566Z,21.28
2023-03-18T02:44:08.979Z,21.27
2023-03-18T02:46:35.746Z,21.25
2023-03-18T02:49:03.743Z,21.27
2023-03-18T02:51:30.894Z,21.33
2023-03-18T02:54:01.100Z,21.29
2023-03-18T02:56:27.801Z,21.30
2023-03-18T02:58:54.452Z,21.27
2023-03-18T03:01:22.444Z,21.21
2023-03-18T03:03:49.434Z,21.20
2023-03-18T03:06:16.221Z,21.18
2023-03-18T03:08:42.881Z,21.17
2023-03-18T03:11:10.423Z,21.14
2023-03-18T03:13:38.249Z,21.13
2023-03-18T03:16:05.171Z,21.12
2023-03-18T03:18:31.888Z,21.13
2023-03-18T03:20:58.570Z,21.10
2023-03-18T03:23:25.523Z,21.08
2023-03-18T03:25:52.161Z,21.07
2023-03-18T03:28:19.061Z,21.04
2023-03-18T03:30:46.232Z,21.04
2023-03-18T03:33:13.252Z,21.00
2023-03-18T03:35:40.266Z,20.98
2023-03-18T03:38:06.961Z,20.98
2023-03-18T03:40:34.197Z,20.97
2023-03-18T03:43:00.984Z,20.96
2023-03-18T03:45:27.764Z,20.95
2023-03-18T03:47:54.539Z,20.94
2023-03-18T03:50:21.876Z,20.92
2023-03-18T03:52:49.477Z,20.89
2023-03-18T03:55:18.465Z,20.89
2023-03-18T03:57:46.028Z,20.87
2023-03-18T04:00:14.404Z,20.86
2023-03-18T04:02:43.590Z,20.83
2023-03-18T04:05:11.764Z,20.84
2023-03-18T04:07:38.961Z,20.82
2023-03-18T04:10:06.243Z,20.81
2023-03-18T04:12:32.883Z,20.79
2023-03-18T04:14:59.807Z,20.78
2023-03-18T04:17:26.432Z,20.77
2023-03-18T04:19:53.189Z,20.77
2023-03-18T04:22:19.902Z,20.74
2023-03-18T04:24:46.621Z,20.74
2023-03-18T04:27:13.373Z,20.74
2023-03-18T04:29:40.058Z,20.73
2023-03-18T04:32:06.980Z,20.71
2023-03-18T04:34:33.853Z,20.69
2023-03-18T04:37:00.495Z,20.69
2023-03-18T04:39:27.128Z,20.68
2023-03-18T04:41:54.859Z,20.67
2023-03-18T04:44:21.530Z,20.66
2023-03-18T04:46:48.229Z,20.64
2023-03-18T04:49:14.953Z,20.65
2023-03-18T04:51:41.725Z,20.62
2023-03-18T04:54:08.516Z,20.61
2023-03-18T04:56:35.450Z,20.59
2023-03-18T04:59:02.160Z,20.58
2023-03-18T05:01:28.846Z,20.59
2023-03-18T05:03:55.529Z,20.57
2023-03-18T05:06:23.555Z,20.56
2023-03-18T05:08:50.422Z,20.55
2023-03-18T05:11:18.075Z,20.56
2023-03-18T05:13:44.874Z,20.55
2023-03-18T05:16:11.543Z,20.54
2023-03-18T05:18:39.227Z,20.52
2023-03-18T05:21:14.709Z,20.51
2023-03-18T05:23:41.662Z,20.51
2023-03-18T05:26:08.331Z,20.51
2023-03-18T05:28:35.019Z,20.49
2023-03-18T05:31:11.759Z,20.48
2023-03-18T05:33:38.413Z,20.48
2023-03-18T05:36:05.237Z,20.47
2023-03-18T05:38:31.901Z,20.46
2023-03-18T05:40:58.504Z,20.45
2023-03-18T05:43:26.431Z,20.43
2023-03-18T05:45:53.181Z,20.43
2023-03-18T05:48:19.998Z,20.44
2023-03-18T05:50:47.092Z,20.41
2023-03-18T05:53:16.441Z,20.41
2023-03-18T05:55:43.492Z,20.40
2023-03-18T05:58:10.396Z,20.38
2023-03-18T06:00:37.822Z,20.38
2023-03-18T06:03:04.809Z,20.36
2023-03-18T06:05:31.914Z,20.36
2023-03-18T06:07:59.605Z,20.36
2023-03-18T06:10:26.664Z,20.35
2023-03-18T06:12:55.080Z,20.35
2023-03-18T06:15:22.689Z,20.33
2023-03-18T06:17:49.380Z,20.32
2023-03-18T06:20:16.249Z,20.32
2023-03-18T06:22:43.913Z,20.30
2023-03-18T06:25:11.070Z,20.30
2023-03-18T06:27:37.867Z,20.27
2023-03-18T06:30:05.700Z,20.27
2023-03-18T06:32:33.185Z,20.33
2023-03-18T06:35:00.213Z,20.29
2023-03-18T06:37:26.962Z,20.31
2023-03-18T06:39:53.793Z,20.29
2023-03-18T06:42:20.523Z,20.25
2023-03-18T06:44:50.908Z,20.24
2023-03-18T06:47:18.577Z,20.23
2023-03-18T06:49:46.119Z,20.21
2023-03-18T06:52:13.768Z,20.21
2023-03-18T06:54:41.217Z,20.22
2023-03-18T06:57:08.670Z,20.20
2023-03-18T06:59:35.831Z,20.17
2023-03-18T07:02:03.303Z,20.17
2023-03-18T07:04:29.979Z,20.18
2023-03-18T07:06:57.961Z,20.15
2023-03-18T07:09:24.822Z,20.15
2023-03-18T07:11:51.446Z,20.14
2023-03-18T07:14:18.563Z,20.14
2023-03-18T07:16:46.148Z,20.11
2023-03-18T07:19:12.855Z,20.11
2023-03-18T07:21:40.909Z,20.11
2023-03-18T07:24:07.575Z,20.09
2023-03-18T07:26:34.574Z,20.10
2023-03-18T07:29:01.921Z,20.09
2023-03-18T07:31:28.680Z,20.07
2023-03-18T07:33:55.336Z,20.06
2023-03-18T07:36:21.981Z,20.06
2023-03-18T07:38:48.628Z,20.06
2023-03-18T07:41:16.052Z,20.06
2023-03-18T07:43:43.799Z,20.05
2023-03-18T07:46:10.547Z,20.03
2023-03-18T07:48:37.274Z,20.04
2023-03-18T07:51:04.070Z,20.04
2023-03-18T07:53:30.850Z,20.02
2023-03-18T07:55:57.489Z,20.02
2023-03-18T07:58:24.829Z,20.02
2023-03-18T08:00:52.718Z,20.01
2023-03-18T08:03:19.375Z,20.00
2023-03-18T08:05:46.120Z,19.98
2023-03-18T08:08:12.832Z,19.98
2023-03-18T08:10:39.540Z,19.97
2023-03-18T08:13:06.360Z,19.97
2023-03-18T08:15:33.202Z,19.97
2023-03-18T08:18:00.141Z,19.96
2023-03-18T08:20:27.393Z,19.96
2023-03-18T08:22:54.057Z,19.96
2023-03-18T08:25:22.335Z,19.95
2023-03-18T08:27:49.054Z,19.96
2023-03-18T08:30:16.660Z,19.95
2023-03-18T08:32:43.594Z,19.94
2023-03-18T08:35:11.401Z,19.93
2023-03-18T08:37:38.103Z,19.92
2023-03-18T08:40:05.281Z,19.90
2023-03-18T08:42:31.962Z,19.89
2023-03-18T08:44:58.843Z,19.90
2023-03-18T08:47:25.471Z,19.89
2023-03-18T08:49:52.167Z,19.87
2023-03-18T08:52:19.327Z,19.85
2023-03-18T08:54:46.160Z,19.87
2023-03-18T08:57:12.949Z,19.85
2023-03-18T08:59:39.574Z,19.86
2023-03-18T09:02:06.238Z,19.85
2023-03-18T09:04:33.026Z,19.85
2023-03-18T09:07:01.712Z,19.86
2023-03-18T09:09:42.663Z,19.86
2023-03-18T09:12:09.594Z,19.86
2023-03-18T09:14:36.457Z,19.84
2023-03-18T09:17:03.175Z,19.83
2023-03-18T09:19:29.958Z,19.83
2023-03-18T09:21:56.637Z,19.84
2023-03-18T09:24:23.282Z,19.86
2023-03-18T09:26:49.912Z,19.87
2023-03-18T09:29:16.665Z,19.95
2023-03-18T09:31:43.406Z,19.92
2023-03-18T09:34:13.590Z,19.71
2023-03-18T09:36:41.553Z,19.71
2023-03-18T09:39:09.308Z,19.66
2023-03-18T09:41:39.045Z,19.66
2023-03-18T09:44:21.917Z,19.66
2023-03-18T09:46:57.797Z,19.65
2023-03-18T09:49:33.553Z,19.67
2023-03-18T09:52:09.957Z,19.68
2023-03-18T09:54:42.812Z,19.69
2023-03-18T09:57:13.243Z,19.68
2023-03-18T09:59:45.882Z,19.69
2023-03-18T10:02:22.582Z,19.69
2023-03-18T10:04:53.073Z,19.70
2023-03-18T10:07:23.081Z,19.70
2023-03-18T10:09:54.479Z,19.69
2023-03-18T10:12:32.255Z,19.71
2023-03-18T10:15:07.032Z,19.78
2023-03-18T10:17:41.932Z,19.75
2023-03-18T10:20:31.691Z,19.78
2023-03-18T10:22:58.339Z,19.87
2023-03-18T10:25:24.908Z,19.96
2023-03-18T10:27:57.650Z,20.06
2023-03-18T10:30:43.125Z,20.14
2023-03-18T10:33:17.997Z,20.12
2023-03-18T10:35:50.563Z,20.18
2023-03-18T10:38:20.016Z,20.24
2023-03-18T10:40:47.983Z,20.31
2023-03-18T10:43:17.696Z,20.36
2023-03-18T10:45:45.982Z,20.45
2023-03-18T10:48:12.554Z,20.49
2023-03-18T10:50:51.900Z,20.58
2023-03-18T10:53:26.269Z,20.64
2023-03-18T10:55:53.198Z,20.70
2023-03-18T10:58:20.767Z,20.74
2023-03-18T11:00:47.467Z,20.79
2023-03-18T11:03:19.374Z,20.84
2023-03-18T11:05:46.517Z,20.90
2023-03-18T11:08:34.731Z,20.94
2023-03-18T11:11:24.639Z,20.99
2023-03-18T11:13:56.079Z,21.04
2023-03-18T11:16:26.297Z,21.09
2023-03-18T11:18:53.239Z,21.14
2023-03-18T11:21:20.725Z,21.18
2023-03-18T11:24:07.792Z,21.23
2023-03-18T11:26:54.029Z,21.31
2023-03-18T11:29:26.200Z,21.39
2023-03-18T11:31:59.917Z,21.45
2023-03-18T11:34:27.558Z,21.48
2023-03-18T11:37:01.663Z,21.55
2023-03-18T11:39:29.764Z,21.59
2023-03-18T11:41:58.232Z,21.61
2023-03-18T11:44:29.026Z,21.64
2023-03-18T11:46:59.177Z,21.67
2023-03-18T11:49:27.471Z,21.70
2023-03-18T11:52:03.254Z,21.72
2023-03-18T11:54:29.952Z,21.73
2023-03-18T11:57:14.289Z,21.75
2023-03-18T11:59:43.666Z,21.77
2023-03-18T12:02:22.944Z,21.79
2023-03-18T12:05:05.786Z,21.82
2023-03-18T12:07:43.159Z,21.82
2023-03-18T12:10:28.624Z,21.83
2023-03-18T12:13:14.318Z,21.85
2023-03-18T12:15:41.321Z,21.84
2023-03-18T12:18:07.981Z,21.85
2023-03-18T12:20:48.235Z,21.87
2023-03-18T12:23:33.367Z,21.89
2023-03-18T12:26:02.849Z,21.88
2023-03-18T12:28:33.107Z,21.88
2023-03-18T12:31:17.601Z,21.88
2023-03-18T12:33:57.212Z,21.89
2023-03-18T12:36:44.579Z,21.87
2023-03-18T12:39:20.682Z,21.87
2023-03-18T12:41:47.281Z,21.85
2023-03-18T12:44:14.284Z,21.85
2023-03-18T12:46:49.298Z,21.83
2023-03-18T12:49:39.198Z,21.83
2023-03-18T12:52:08.445Z,21.79
2023-03-18T12:54:45.825Z,21.77
2023-03-18T12:57:23.830Z,21.80
2023-03-18T12:59:56.916Z,21.84
2023-03-18T13:02:39.604Z,21.88
2023-03-18T13:05:12.704Z,21.91
2023-03-18T13:07:46.375Z,21.93
2023-03-18T13:10:23.753Z,21.92
2023-03-18T13:12:55.769Z,21.92
2023-03-18T13:15:28.579Z,21.93
2023-03-18T13:17:57.454Z,21.95
2023-03-18T13:20:25.703Z,21.96
2023-03-18T13:22:52.320Z,21.99
2023-03-18T13:25:21.991Z,22.00
2023-03-18T13:27:49.817Z,22.04
2023-03-18T13:30:41.329Z,22.06
2023-03-18T13:33:11.300Z,22.08
2023-03-18T13:35:41.046Z,22.12
2023-03-18T13:38:07.881Z,22.14
2023-03-18T13:41:03.984Z,22.15
2023-03-18T13:43:32.376Z,22.17
2023-03-18T13:45:59.451Z,22.19
2023-03-18T13:48:37.021Z,22.23
2023-03-18T13:51:20.876Z,22.24
2023-03-18T13:53:50.865Z,22.27
2023-03-18T13:56:34.166Z,22.30
2023-03-18T13:59:07.861Z,22.32
2023-03-18T14:01:36.566Z,22.32
2023-03-18T14:07:22.243Z,22.32
2023-03-18T14:09:52.242Z,22.32
2023-03-18T14:12:39.609Z,22.32
2023-03-18T14:15:09.701Z,22.32
2023-03-18T14:17:47.981Z,22.31
2023-03-18T14:20:18.007Z,22.30
2023-03-18T14:23:07.830Z,22.30
2023-03-18T14:25:39.727Z,22.29
2023-03-18T14:28:13.665Z,22.27
2023-03-18T14:30:43.803Z,22.28
2023-03-18T14:33:13.211Z,22.26
2023-03-18T14:35:48.956Z,22.24
2023-03-18T14:38:20.964Z,22.18
2023-03-18T14:40:50.569Z,22.15
2023-03-18T14:43:26.476Z,22.12
2023-03-18T14:45:56.407Z,22.09
2023-03-18T14:48:31.164Z,22.05
2023-03-18T14:51:04.228Z,22.03
2023-03-18T14:53:30.886Z,22.01
2023-03-18T14:55:59.148Z,21.99
2023-03-18T14:58:26.769Z,21.98
2023-03-18T15:00:55.024Z,21.99
2023-03-18T15:03:46.295Z,22.00
2023-03-18T15:06:18.638Z,21.97
2023-03-18T15:09:01.077Z,21.95
2023-03-18T15:11:30.680Z,21.92
2023-03-18T15:14:00.182Z,21.95
2023-03-18T15:16:31.302Z,21.94
2023-03-18T15:18:58.329Z,21.97
2023-03-18T15:21:32.861Z,21.94
2023-03-18T15:24:03.997Z,21.92
2023-03-18T15:26:34.172Z,21.90
2023-03-18T15:29:02.051Z,21.88
2023-03-18T15:31:30.941Z,21.86
2023-03-18T15:34:24.432Z,21.82
2023-03-18T15:36:55.907Z,21.80
2023-03-18T15:39:32.555Z,21.78
2023-03-18T15:41:59.989Z,21.76
2023-03-18T15:44:29.306Z,21.74
2023-03-18T15:47:03.438Z,21.71
2023-03-18T15:49:30.043Z,21.70
2023-03-18T15:52:01.246Z,21.72
2023-03-18T15:54:30.126Z,21.72
2023-03-18T15:56:58.258Z,21.72
2023-03-18T15:59:32.627Z,21.71
2023-03-18T16:01:59.750Z,21.69
2023-03-18T16:04:31.021Z,21.69
2023-03-18T16:06:58.038Z,21.65
2023-03-18T16:09:25.421Z,21.61
2023-03-18T16:11:52.298Z,21.59
2023-03-18T16:14:20.870Z,21.56
2023-03-18T16:16:48.175Z,21.57
2023-03-18T16:19:34.162Z,21.59
2023-03-18T16:22:00.916Z,21.59
2023-03-18T16:24:27.705Z,21.59
2023-03-18T16:26:55.113Z,21.61
2023-03-18T16:29:28.875Z,21.56
2023-03-18T16:31:56.020Z,21.56
2023-03-18T16:34:22.829Z,21.54
2023-03-18T16:36:51.013Z,21.51
2023-03-18T16:39:22.023Z,21.49
2023-03-18T16:41:49.769Z,21.49
2023-03-18T16:44:18.079Z,21.49
2023-03-18T16:46:55.300Z,21.46
2023-03-18T16:49:33.460Z,21.46
2023-03-18T16:52:01.997Z,21.51
2023-03-18T16:54:29.954Z,21.46
2023-03-18T16:56:58.472Z,21.47
2023-03-18T16:59:29.765Z,21.44
2023-03-18T17:01:56.536Z,21.41
2023-03-18T17:04:28.843Z,21.46
2023-03-18T17:06:56.316Z,21.47
2023-03-18T17:09:23.691Z,21.50
2023-03-18T17:11:51.380Z,21.41
2023-03-18T17:14:38.806Z,21.33
2023-03-18T17:17:14.833Z,21.29
2023-03-18T17:19:41.719Z,21.24
2023-03-18T17:22:28.571Z,21.21
2023-03-18T17:24:55.218Z,21.18
2023-03-18T17:27:23.890Z,21.15
2023-03-18T17:29:50.695Z,21.11
2023-03-18T17:32:19.691Z,21.07
2023-03-18T17:34:47.423Z,21.06
2023-03-18T17:37:14.157Z,21.03
2023-03-18T17:39:41.092Z,21.01
2023-03-18T17:42:23.161Z,20.97
2023-03-18T17:44:49.979Z,20.94
2023-03-18T17:47:16.595Z,20.91
2023-03-18T17:49:43.230Z,20.89
2023-03-18T17:52:11.425Z,20.90
2023-03-18T17:54:38.173Z,20.92
2023-03-18T17:57:05.810Z,20.94
2023-03-18T17:59:33.445Z,20.97
2023-03-18T18:02:00.218Z,20.98
2023-03-18T18:04:27.641Z,21.04
2023-03-18T18:06:54.591Z,21.13
2023-03-18T18:09:21.977Z,21.21
2023-03-18T18:11:50.936Z,21.28
2023-03-18T18:14:26.222Z,21.35
2023-03-18T18:16:56.927Z,21.41
2023-03-18T18:19:23.686Z,21.46
2023-03-18T18:21:50.745Z,21.50
2023-03-18T18:24:25.543Z,21.55
2023-03-18T18:26:52.304Z,21.59
2023-03-18T18:29:20.821Z,21.63
2023-03-18T18:31:48.154Z,21.64
2023-03-18T18:34:15.608Z,21.68
2023-03-18T18:36:42.948Z,21.71
2023-03-18T18:39:10.044Z,21.72
2023-03-18T18:41:36.739Z,21.74
2023-03-18T18:44:03.400Z,21.76
2023-03-18T18:46:31.138Z,21.79
2023-03-18T18:48:58.046Z,21.82
2023-03-18T18:51:25.577Z,21.82
2023-03-18T18:53:53.746Z,21.84
2023-03-18T18:56:34.250Z,21.85
2023-03-18T18:59:01.850Z,21.86
2023-03-18T19:01:28.520Z,21.86
2023-03-18T19:03:55.721Z,21.86
2023-03-18T19:06:27.678Z,21.87
2023-03-18T19:08:54.680Z,21.86
2023-03-18T19:11:24.824Z,21.85
2023-03-18T19:13:52.038Z,21.85
2023-03-18T19:16:32.746Z,21.85
2023-03-18T19:19:00.094Z,21.85
2023-03-18T19:21:27.595Z,21.84
2023-03-18T19:23:55.632Z,21.82
2023-03-18T19:26:22.361Z,21.81
2023-03-18T19:28:57.574Z,21.81
2023-03-18T19:31:27.187Z,21.78
2023-03-18T19:33:54.145Z,21.74
2023-03-18T19:36:23.490Z,21.73
2023-03-18T19:38:51.063Z,21.72
2023-03-18T19:41:17.817Z,21.68
2023-03-18T19:43:44.656Z,21.65
2023-03-18T19:46:19.155Z,21.63
2023-03-18T19:48:46.130Z,21.60
2023-03-18T19:51:15.796Z,21.56
2023-03-18T19:53:44.073Z,21.63
2023-03-18T19:56:29.901Z,21.71
2023-03-18T19:58:58.492Z,21.69
2023-03-18T20:01:27.589Z,21.62
2023-03-18T20:03:57.319Z,21.58
2023-03-18T20:06:24.345Z,21.53
2023-03-18T20:08:51.481Z,21.50
2023-03-18T20:11:21.138Z,21.47
2023-03-18T20:13:48.081Z,21.45
2023-03-18T20:16:15.660Z,21.41
2023-03-18T20:18:42.970Z,21.39
2023-03-18T20:21:23.933Z,21.38
2023-03-18T20:23:51.856Z,21.34
2023-03-18T20:26:18.661Z,21.31
2023-03-18T20:28:45.934Z,21.31
2023-03-18T20:31:19.008Z,21.26
2023-03-18T20:33:48.166Z,21.23
2023-03-18T20:36:16.463Z,21.21
2023-03-18T20:38:44.995Z,21.18
2023-03-18T20:41:16.782Z,21.16
2023-03-18T20:43:44.358Z,21.15
2023-03-18T20:46:15.283Z,21.14
2023-03-18T20:48:42.335Z,21.09
2023-03-18T20:51:19.927Z,21.09
2023-03-18T20:53:48.514Z,21.06
2023-03-18T20:56:16.461Z,21.04
2023-03-18T20:58:43.282Z,21.02
2023-03-18T21:01:18.926Z,21.02
2023-03-18T21:03:46.273Z,20.98
2023-03-18T21:06:14.724Z,20.96
2023-03-18T21:08:41.729Z,20.95
2023-03-18T21:11:26.307Z,20.92
2023-03-18T21:13:53.464Z,20.90
2023-03-18T21:16:21.436Z,20.90
2023-03-18T21:18:49.914Z,20.90
2023-03-18T21:21:22.982Z,20.87
2023-03-18T21:23:49.766Z,20.85
2023-03-18T21:26:17.080Z,20.81
2023-03-18T21:28:44.040Z,20.80
2023-03-18T21:31:28.276Z,20.80
2023-03-18T21:33:57.616Z,20.79
2023-03-18T21:36:24.465Z,20.83
2023-03-18T21:38:51.179Z,20.85
2023-03-18T21:41:24.525Z,20.84
2023-03-18T21:43:51.442Z,20.88
2023-03-18T21:46:19.751Z,20.95
2023-03-18T21:48:46.755Z,21.03
2023-03-18T21:51:35.497Z,21.08
2023-03-18T21:54:04.240Z,21.15
2023-03-18T21:56:30.918Z,21.21
2023-03-18T21:58:57.814Z,21.26
2023-03-18T22:01:27.480Z,21.32
2023-03-18T22:03:54.586Z,21.36
2023-03-18T22:06:22.270Z,21.39
2023-03-18T22:08:49.033Z,21.43
2023-03-18T22:11:17.539Z,21.45
2023-03-18T22:13:44.710Z,21.47
2023-03-18T22:16:15.638Z,21.50
2023-03-18T22:18:43.306Z,21.52
2023-03-18T22:21:17.085Z,21.52
2023-03-18T22:23:44.667Z,21.55
2023-03-18T22:26:13.957Z,21.57
2023-03-18T22:28:40.849Z,21.61
2023-03-18T22:31:20.595Z,21.62
2023-03-18T22:33:47.953Z,21.64
2023-03-18T22:36:15.871Z,21.67
2023-03-18T22:38:42.931Z,21.68
2023-03-18T22:41:17.624Z,21.69
2023-03-18T22:43:44.437Z,21.71
2023-03-18T22:46:11.958Z,21.72
2023-03-18T22:48:38.790Z,21.73
2023-03-18T22:51:15.115Z,21.74
2023-03-18T22:53:42.740Z,21.74
2023-03-18T22:56:13.432Z,21.74
2023-03-18T22:58:40.091Z,21.73
2023-03-18T23:01:14.455Z,21.75
2023-03-18T23:03:44.067Z,21.76
2023-03-18T23:06:14.120Z,21.74
2023-03-18T23:08:40.777Z,21.76
2023-03-18T23:11:13.463Z,21.74
2023-03-18T23:13:41.954Z,21.74
2023-03-18T23:16:11.794Z,21.74
2023-03-18T23:18:38.554Z,21.73
2023-03-18T23:21:09.795Z,21.73
2023-03-18T23:23:36.442Z,21.72
2023-03-18T23:26:03.521Z,21.71
2023-03-18T23:28:30.207Z,21.71
2023-03-18T23:30:56.916Z,21.71
2023-03-18T23:33:23.612Z,21.69
2023-03-18T23:35:50.332Z,21.70
2023-03-18T23:38:17.097Z,21.69
2023-03-18T23:40:44.674Z,21.69
2023-03-18T23:43:11.397Z,21.66
2023-03-18T23:45:39.004Z,21.65
2023-03-18T23:48:06.378Z,21.65
2023-03-18T23:50:33.522Z,21.61
2023-03-18T23:53:00.684Z,21.56
2023-03-18T23:55:34.453Z,21.52
2023-03-18T23:58:01.739Z,21.50
